sensor_id;sensor_type;location;lat;lon;timestamp;P1;durP1;ratioP1;P2;durP2;ratioP2
11921;SDS011;6021;51.182;3.160;2022-11-15T00:01:15;28.83;;;23.73;;
11921;SDS011;6021;51.182;3.160;2022-11-15T00:03:44;27.87;;;24.60;;
11921;SDS011;6021;51.182;3.160;2022-11-15T00:06:13;27.37;;;23.20;;
11921;SDS011;6021;51.182;3.160;2022-11-15T00:08:41;25.47;;;22.63;;
11921;SDS011;6021;51.182;3.160;2022-11-15T00:11:10;26.93;;;23.93;;
11921;SDS011;6021;51.182;3.160;2022-11-15T00:13:40;25.00;;;22.30;;
11921;SDS011;6021;51.182;3.160;2022-11-15T00:16:08;25.70;;;22.83;;
11921;SDS011;6021;51.182;3.160;2022-11-15T00:18:37;24.27;;;21.53;;
11921;SDS011;6021;51.182;3.160;2022-11-15T00:21:06;20.87;;;16.63;;
11921;SDS011;6021;51.182;3.160;2022-11-15T00:23:37;21.40;;;15.57;;
11921;SDS011;6021;51.182;3.160;2022-11-15T00:26:05;21.93;;;19.73;;
11921;SDS011;6021;51.182;3.160;2022-11-15T00:28:34;21.47;;;19.27;;
11921;SDS011;6021;51.182;3.160;2022-11-15T00:31:02;20.23;;;17.20;;
11921;SDS011;6021;51.182;3.160;2022-11-15T00:33:32;19.97;;;14.87;;
11921;SDS011;6021;51.182;3.160;2022-11-15T00:36:05;17.77;;;14.13;;
11921;SDS011;6021;51.182;3.160;2022-11-15T00:38:37;18.37;;;14.40;;
11921;SDS011;6021;51.182;3.160;2022-11-15T00:41:07;20.13;;;14.23;;
11921;SDS011;6021;51.182;3.160;2022-11-15T00:43:36;16.67;;;13.20;;
11921;SDS011;6021;51.182;3.160;2022-11-15T00:46:06;18.30;;;12.63;;
11921;SDS011;6021;51.182;3.160;2022-11-15T00:48:36;16.07;;;11.93;;
11921;SDS011;6021;51.182;3.160;2022-11-15T00:51:04;15.97;;;13.43;;
11921;SDS011;6021;51.182;3.160;2022-11-15T00:53:33;17.07;;;12.27;;
11921;SDS011;6021;51.182;3.160;2022-11-15T00:56:01;19.70;;;12.60;;
11921;SDS011;6021;51.182;3.160;2022-11-15T00:58:30;14.83;;;11.50;;
11921;SDS011;6021;51.182;3.160;2022-11-15T01:01:08;16.43;;;11.87;;
11921;SDS011;6021;51.182;3.160;2022-11-15T01:03:38;17.47;;;12.20;;
11921;SDS011;6021;51.182;3.160;2022-11-15T01:06:08;16.50;;;11.37;;
11921;SDS011;6021;51.182;3.160;2022-11-15T01:08:38;15.37;;;11.87;;
11921;SDS011;6021;51.182;3.160;2022-11-15T01:11:08;16.50;;;11.73;;
11921;SDS011;6021;51.182;3.160;2022-11-15T01:13:38;15.43;;;11.47;;
11921;SDS011;6021;51.182;3.160;2022-11-15T01:18:39;16.00;;;11.67;;
11921;SDS011;6021;51.182;3.160;2022-11-15T01:21:08;15.37;;;11.30;;
11921;SDS011;6021;51.182;3.160;2022-11-15T01:23:38;15.57;;;10.60;;
11921;SDS011;6021;51.182;3.160;2022-11-15T01:26:07;15.40;;;10.53;;
11921;SDS011;6021;51.182;3.160;2022-11-15T01:28:37;15.87;;;10.17;;
11921;SDS011;6021;51.182;3.160;2022-11-15T01:31:15;19.33;;;10.97;;
11921;SDS011;6021;51.182;3.160;2022-11-15T01:33:45;16.40;;;10.87;;
11921;SDS011;6021;51.182;3.160;2022-11-15T01:36:20;13.57;;;10.07;;
11921;SDS011;6021;51.182;3.160;2022-11-15T01:38:46;15.13;;;10.20;;
11921;SDS011;6021;51.182;3.160;2022-11-15T01:41:21;15.43;;;10.03;;
11921;SDS011;6021;51.182;3.160;2022-11-15T01:43:46;16.03;;;9.57;;
11921;SDS011;6021;51.182;3.160;2022-11-15T01:48:59;14.47;;;9.13;;
11921;SDS011;6021;51.182;3.160;2022-11-15T01:51:30;15.50;;;8.83;;
11921;SDS011;6021;51.182;3.160;2022-11-15T01:54:02;16.83;;;8.87;;
11921;SDS011;6021;51.182;3.160;2022-11-15T01:56:32;11.93;;;8.17;;
11921;SDS011;6021;51.182;3.160;2022-11-15T01:59:03;12.50;;;7.60;;
11921;SDS011;6021;51.182;3.160;2022-11-15T02:01:34;14.33;;;8.03;;
11921;SDS011;6021;51.182;3.160;2022-11-15T02:04:07;12.23;;;7.57;;
11921;SDS011;6021;51.182;3.160;2022-11-15T02:06:37;10.30;;;7.17;;
11921;SDS011;6021;51.182;3.160;2022-11-15T02:09:06;10.53;;;6.63;;
11921;SDS011;6021;51.182;3.160;2022-11-15T02:11:34;14.53;;;7.27;;
11921;SDS011;6021;51.182;3.160;2022-11-15T02:14:03;12.33;;;7.13;;
11921;SDS011;6021;51.182;3.160;2022-11-15T02:19:25;12.33;;;6.10;;
11921;SDS011;6021;51.182;3.160;2022-11-15T02:28:15;10.93;;;5.80;;
11921;SDS011;6021;51.182;3.160;2022-11-15T02:31:00;8.70;;;5.70;;
11921;SDS011;6021;51.182;3.160;2022-11-15T02:36:11;9.27;;;4.77;;
11921;SDS011;6021;51.182;3.160;2022-11-15T02:38:46;10.50;;;5.00;;
11921;SDS011;6021;51.182;3.160;2022-11-15T02:41:26;9.80;;;4.87;;
11921;SDS011;6021;51.182;3.160;2022-11-15T02:44:11;9.90;;;4.83;;
11921;SDS011;6021;51.182;3.160;2022-11-15T02:46:48;7.47;;;4.40;;
11921;SDS011;6021;51.182;3.160;2022-11-15T02:49:46;9.20;;;4.20;;
11921;SDS011;6021;51.182;3.160;2022-11-15T02:52:22;12.13;;;4.27;;
11921;SDS011;6021;51.182;3.160;2022-11-15T02:54:57;6.27;;;3.80;;
11921;SDS011;6021;51.182;3.160;2022-11-15T03:00:18;7.43;;;5.23;;
11921;SDS011;6021;51.182;3.160;2022-11-15T03:02:57;10.40;;;4.07;;
11921;SDS011;6021;51.182;3.160;2022-11-15T03:10:57;5.63;;;3.67;;
11921;SDS011;6021;51.182;3.160;2022-11-15T03:13:27;7.70;;;4.03;;
11921;SDS011;6021;51.182;3.160;2022-11-15T03:16:03;6.93;;;3.97;;
11921;SDS011;6021;51.182;3.160;2022-11-15T03:18:37;5.77;;;3.80;;
11921;SDS011;6021;51.182;3.160;2022-11-15T03:21:09;6.73;;;3.83;;
11921;SDS011;6021;51.182;3.160;2022-11-15T03:23:39;7.37;;;3.60;;
11921;SDS011;6021;51.182;3.160;2022-11-15T03:26:08;6.03;;;3.40;;
11921;SDS011;6021;51.182;3.160;2022-11-15T03:28:43;6.20;;;3.77;;
11921;SDS011;6021;51.182;3.160;2022-11-15T03:31:20;5.87;;;3.30;;
11921;SDS011;6021;51.182;3.160;2022-11-15T03:34:09;7.10;;;3.60;;
11921;SDS011;6021;51.182;3.160;2022-11-15T03:36:40;10.23;;;3.70;;
11921;SDS011;6021;51.182;3.160;2022-11-15T03:39:08;7.70;;;2.87;;
11921;SDS011;6021;51.182;3.160;2022-11-15T03:41:56;6.83;;;3.30;;
11921;SDS011;6021;51.182;3.160;2022-11-15T03:49:42;7.37;;;3.20;;
11921;SDS011;6021;51.182;3.160;2022-11-15T03:52:11;5.67;;;3.50;;
11921;SDS011;6021;51.182;3.160;2022-11-15T03:54:54;8.43;;;3.80;;
11921;SDS011;6021;51.182;3.160;2022-11-15T03:57:19;11.00;;;3.60;;
11921;SDS011;6021;51.182;3.160;2022-11-15T03:59:48;6.40;;;3.60;;
11921;SDS011;6021;51.182;3.160;2022-11-15T04:02:16;8.50;;;4.00;;
11921;SDS011;6021;51.182;3.160;2022-11-15T04:04:44;7.50;;;3.67;;
11921;SDS011;6021;51.182;3.160;2022-11-15T04:07:13;6.00;;;4.03;;
11921;SDS011;6021;51.182;3.160;2022-11-15T04:09:41;5.63;;;3.80;;
11921;SDS011;6021;51.182;3.160;2022-11-15T04:12:28;7.43;;;3.90;;
11921;SDS011;6021;51.182;3.160;2022-11-15T04:15:04;8.27;;;4.10;;
11921;SDS011;6021;51.182;3.160;2022-11-15T04:20:15;6.67;;;3.20;;
11921;SDS011;6021;51.182;3.160;2022-11-15T04:23:10;8.70;;;4.27;;
11921;SDS011;6021;51.182;3.160;2022-11-15T04:25:58;6.07;;;4.03;;
11921;SDS011;6021;51.182;3.160;2022-11-15T04:28:29;9.17;;;4.30;;
11921;SDS011;6021;51.182;3.160;2022-11-15T04:30:57;8.73;;;4.30;;
11921;SDS011;6021;51.182;3.160;2022-11-15T04:33:26;6.67;;;4.30;;
11921;SDS011;6021;51.182;3.160;2022-11-15T04:35:54;7.47;;;4.27;;
11921;SDS011;6021;51.182;3.160;2022-11-15T04:38:41;7.27;;;4.47;;
11921;SDS011;6021;51.182;3.160;2022-11-15T04:41:09;7.83;;;4.63;;
11921;SDS011;6021;51.182;3.160;2022-11-15T04:43:37;8.20;;;4.20;;
11921;SDS011;6021;51.182;3.160;2022-11-15T04:46:06;7.37;;;4.77;;
11921;SDS011;6021;51.182;3.160;2022-11-15T04:48:34;6.93;;;4.40;;
11921;SDS011;6021;51.182;3.160;2022-11-15T04:51:03;7.90;;;4.50;;
11921;SDS011;6021;51.182;3.160;2022-11-15T04:53:31;7.23;;;4.47;;
11921;SDS011;6021;51.182;3.160;2022-11-15T04:55:59;9.67;;;4.47;;
11921;SDS011;6021;51.182;3.160;2022-11-15T04:58:28;8.50;;;5.30;;
11921;SDS011;6021;51.182;3.160;2022-11-15T05:00:56;9.20;;;4.97;;
11921;SDS011;6021;51.182;3.160;2022-11-15T05:03:24;7.90;;;4.67;;
11921;SDS011;6021;51.182;3.160;2022-11-15T05:06:10;6.23;;;4.90;;
11921;SDS011;6021;51.182;3.160;2022-11-15T05:08:39;6.97;;;4.83;;
11921;SDS011;6021;51.182;3.160;2022-11-15T05:11:07;6.93;;;5.30;;
11921;SDS011;6021;51.182;3.160;2022-11-15T05:13:35;7.37;;;5.10;;
11921;SDS011;6021;51.182;3.160;2022-11-15T05:16:03;8.97;;;5.30;;
11921;SDS011;6021;51.182;3.160;2022-11-15T05:18:32;8.30;;;5.07;;
11921;SDS011;6021;51.182;3.160;2022-11-15T05:21:09;7.57;;;5.37;;
11921;SDS011;6021;51.182;3.160;2022-11-15T05:23:33;7.97;;;5.53;;
11921;SDS011;6021;51.182;3.160;2022-11-15T05:26:02;7.37;;;5.63;;
11921;SDS011;6021;51.182;3.160;2022-11-15T05:28:32;7.33;;;5.47;;
11921;SDS011;6021;51.182;3.160;2022-11-15T05:31:04;8.37;;;5.80;;
11921;SDS011;6021;51.182;3.160;2022-11-15T05:33:38;10.87;;;6.40;;
11921;SDS011;6021;51.182;3.160;2022-11-15T05:36:09;10.50;;;6.07;;
11921;SDS011;6021;51.182;3.160;2022-11-15T05:38:38;7.47;;;6.30;;
11921;SDS011;6021;51.182;3.160;2022-11-15T05:41:07;8.87;;;6.47;;
11921;SDS011;6021;51.182;3.160;2022-11-15T05:43:36;8.67;;;6.30;;
11921;SDS011;6021;51.182;3.160;2022-11-15T05:46:07;9.80;;;6.93;;
11921;SDS011;6021;51.182;3.160;2022-11-15T05:48:36;9.50;;;6.13;;
11921;SDS011;6021;51.182;3.160;2022-11-15T05:51:06;9.03;;;6.50;;
11921;SDS011;6021;51.182;3.160;2022-11-15T05:53:35;9.87;;;6.87;;
11921;SDS011;6021;51.182;3.160;2022-11-15T05:56:04;10.07;;;6.87;;
11921;SDS011;6021;51.182;3.160;2022-11-15T05:58:33;10.87;;;6.83;;
11921;SDS011;6021;51.182;3.160;2022-11-15T06:01:02;9.17;;;6.67;;
11921;SDS011;6021;51.182;3.160;2022-11-15T06:03:31;11.53;;;6.57;;
11921;SDS011;6021;51.182;3.160;2022-11-15T06:05:59;8.40;;;7.03;;
11921;SDS011;6021;51.182;3.160;2022-11-15T06:08:28;11.77;;;7.20;;
11921;SDS011;6021;51.182;3.160;2022-11-15T06:10:56;11.90;;;7.03;;
11921;SDS011;6021;51.182;3.160;2022-11-15T06:13:26;8.60;;;6.07;;
11921;SDS011;6021;51.182;3.160;2022-11-15T06:15:57;9.53;;;6.83;;
11921;SDS011;6021;51.182;3.160;2022-11-15T06:18:25;9.50;;;6.63;;
11921;SDS011;6021;51.182;3.160;2022-11-15T06:20:54;8.07;;;6.20;;
11921;SDS011;6021;51.182;3.160;2022-11-15T06:23:25;9.50;;;6.77;;
11921;SDS011;6021;51.182;3.160;2022-11-15T06:25:57;8.67;;;6.40;;
11921;SDS011;6021;51.182;3.160;2022-11-15T06:28:27;8.03;;;6.57;;
11921;SDS011;6021;51.182;3.160;2022-11-15T06:31:10;7.70;;;6.40;;
11921;SDS011;6021;51.182;3.160;2022-11-15T06:33:35;9.37;;;6.30;;
11921;SDS011;6021;51.182;3.160;2022-11-15T06:36:04;10.30;;;6.77;;
11921;SDS011;6021;51.182;3.160;2022-11-15T06:38:34;8.23;;;6.53;;
11921;SDS011;6021;51.182;3.160;2022-11-15T06:41:04;8.90;;;7.10;;
11921;SDS011;6021;51.182;3.160;2022-11-15T06:43:34;9.33;;;5.40;;
11921;SDS011;6021;51.182;3.160;2022-11-15T06:46:04;12.40;;;5.90;;
11921;SDS011;6021;51.182;3.160;2022-11-15T06:48:34;8.00;;;7.00;;
11921;SDS011;6021;51.182;3.160;2022-11-15T06:51:03;10.20;;;7.10;;
11921;SDS011;6021;51.182;3.160;2022-11-15T06:53:31;8.87;;;6.93;;
11921;SDS011;6021;51.182;3.160;2022-11-15T06:56:00;9.23;;;7.00;;
11921;SDS011;6021;51.182;3.160;2022-11-15T06:58:30;8.50;;;7.47;;
11921;SDS011;6021;51.182;3.160;2022-11-15T07:01:00;10.60;;;7.93;;
11921;SDS011;6021;51.182;3.160;2022-11-15T07:03:30;13.13;;;8.50;;
11921;SDS011;6021;51.182;3.160;2022-11-15T07:05:59;10.20;;;8.20;;
11921;SDS011;6021;51.182;3.160;2022-11-15T07:08:27;9.93;;;8.30;;
11921;SDS011;6021;51.182;3.160;2022-11-15T07:10:59;11.67;;;9.07;;
11921;SDS011;6021;51.182;3.160;2022-11-15T07:13:32;13.53;;;9.97;;
11921;SDS011;6021;51.182;3.160;2022-11-15T07:16:02;12.40;;;9.93;;
11921;SDS011;6021;51.182;3.160;2022-11-15T07:18:35;10.43;;;9.33;;
11921;SDS011;6021;51.182;3.160;2022-11-15T07:21:04;12.63;;;10.70;;
11921;SDS011;6021;51.182;3.160;2022-11-15T07:23:38;14.47;;;10.43;;
11921;SDS011;6021;51.182;3.160;2022-11-15T07:26:07;16.37;;;10.80;;
11921;SDS011;6021;51.182;3.160;2022-11-15T07:28:35;12.67;;;11.27;;
11921;SDS011;6021;51.182;3.160;2022-11-15T07:31:04;12.10;;;10.90;;
11921;SDS011;6021;51.182;3.160;2022-11-15T07:33:34;11.37;;;9.13;;
11921;SDS011;6021;51.182;3.160;2022-11-15T07:36:04;14.83;;;8.70;;
11921;SDS011;6021;51.182;3.160;2022-11-15T07:38:34;11.40;;;8.40;;
11921;SDS011;6021;51.182;3.160;2022-11-15T07:41:03;15.03;;;11.50;;
11921;SDS011;6021;51.182;3.160;2022-11-15T07:43:32;12.03;;;8.33;;
11921;SDS011;6021;51.182;3.160;2022-11-15T07:46:09;12.37;;;11.07;;
11921;SDS011;6021;51.182;3.160;2022-11-15T07:48:37;14.10;;;11.20;;
11921;SDS011;6021;51.182;3.160;2022-11-15T07:51:06;13.03;;;11.50;;
11921;SDS011;6021;51.182;3.160;2022-11-15T07:53:37;14.40;;;10.93;;
11921;SDS011;6021;51.182;3.160;2022-11-15T07:56:06;11.97;;;10.77;;
11921;SDS011;6021;51.182;3.160;2022-11-15T07:58:35;13.63;;;10.60;;
11921;SDS011;6021;51.182;3.160;2022-11-15T08:01:04;11.50;;;10.47;;
11921;SDS011;6021;51.182;3.160;2022-11-15T08:03:33;11.57;;;10.13;;
11921;SDS011;6021;51.182;3.160;2022-11-15T08:06:02;10.87;;;9.53;;
11921;SDS011;6021;51.182;3.160;2022-11-15T08:08:31;10.77;;;9.60;;
11921;SDS011;6021;51.182;3.160;2022-11-15T08:10:59;13.20;;;9.43;;
11921;SDS011;6021;51.182;3.160;2022-11-15T08:13:28;12.60;;;9.10;;
11921;SDS011;6021;51.182;3.160;2022-11-15T08:16:02;8.87;;;7.97;;
11921;SDS011;6021;51.182;3.160;2022-11-15T08:18:27;11.93;;;8.30;;
11921;SDS011;6021;51.182;3.160;2022-11-15T08:20:58;11.53;;;8.27;;
11921;SDS011;6021;51.182;3.160;2022-11-15T08:23:26;13.17;;;8.13;;
11921;SDS011;6021;51.182;3.160;2022-11-15T08:26:02;12.47;;;8.07;;
11921;SDS011;6021;51.182;3.160;2022-11-15T08:28:32;10.07;;;7.40;;
11921;SDS011;6021;51.182;3.160;2022-11-15T08:31:00;9.97;;;6.93;;
11921;SDS011;6021;51.182;3.160;2022-11-15T08:33:29;8.23;;;6.83;;
11921;SDS011;6021;51.182;3.160;2022-11-15T08:35:59;10.40;;;6.60;;
11921;SDS011;6021;51.182;3.160;2022-11-15T08:38:28;8.97;;;6.37;;
11921;SDS011;6021;51.182;3.160;2022-11-15T08:41:01;9.93;;;6.80;;
11921;SDS011;6021;51.182;3.160;2022-11-15T08:43:31;8.27;;;6.17;;
11921;SDS011;6021;51.182;3.160;2022-11-15T08:45:59;12.40;;;6.30;;
11921;SDS011;6021;51.182;3.160;2022-11-15T08:48:27;8.73;;;6.07;;
11921;SDS011;6021;51.182;3.160;2022-11-15T08:50:56;9.80;;;5.83;;
11921;SDS011;6021;51.182;3.160;2022-11-15T08:53:25;9.50;;;5.30;;
11921;SDS011;6021;51.182;3.160;2022-11-15T08:55:53;8.23;;;4.70;;
11921;SDS011;6021;51.182;3.160;2022-11-15T08:58:22;9.17;;;5.00;;
11921;SDS011;6021;51.182;3.160;2022-11-15T09:00:50;10.47;;;5.90;;
11921;SDS011;6021;51.182;3.160;2022-11-15T09:03:18;9.90;;;4.90;;
11921;SDS011;6021;51.182;3.160;2022-11-15T09:05:47;9.63;;;5.10;;
11921;SDS011;6021;51.182;3.160;2022-11-15T09:08:15;14.43;;;4.83;;
11921;SDS011;6021;51.182;3.160;2022-11-15T09:10:44;10.87;;;4.93;;
11921;SDS011;6021;51.182;3.160;2022-11-15T09:13:13;10.17;;;4.50;;
11921;SDS011;6021;51.182;3.160;2022-11-15T09:15:41;8.90;;;4.70;;
11921;SDS011;6021;51.182;3.160;2022-11-15T09:18:09;9.40;;;4.20;;
11921;SDS011;6021;51.182;3.160;2022-11-15T09:20:38;8.83;;;4.23;;
11921;SDS011;6021;51.182;3.160;2022-11-15T09:23:06;10.70;;;4.40;;
11921;SDS011;6021;51.182;3.160;2022-11-15T09:25:35;6.57;;;3.60;;
11921;SDS011;6021;51.182;3.160;2022-11-15T09:28:05;5.50;;;3.23;;
11921;SDS011;6021;51.182;3.160;2022-11-15T09:30:34;8.87;;;3.50;;
11921;SDS011;6021;51.182;3.160;2022-11-15T09:33:08;7.43;;;3.20;;
11921;SDS011;6021;51.182;3.160;2022-11-15T09:35:38;5.50;;;2.90;;
11921;SDS011;6021;51.182;3.160;2022-11-15T09:38:07;9.67;;;2.87;;
11921;SDS011;6021;51.182;3.160;2022-11-15T09:40:36;6.83;;;3.07;;
11921;SDS011;6021;51.182;3.160;2022-11-15T09:48:50;5.07;;;2.80;;
11921;SDS011;6021;51.182;3.160;2022-11-15T09:54:03;5.37;;;2.60;;
11921;SDS011;6021;51.182;3.160;2022-11-15T09:56:33;5.80;;;2.80;;
11921;SDS011;6021;51.182;3.160;2022-11-15T09:59:21;6.87;;;3.00;;
11921;SDS011;6021;51.182;3.160;2022-11-15T10:04:29;7.10;;;2.80;;
11921;SDS011;6021;51.182;3.160;2022-11-15T10:07:13;6.30;;;3.00;;
11921;SDS011;6021;51.182;3.160;2022-11-15T10:09:50;6.20;;;2.80;;
11921;SDS011;6021;51.182;3.160;2022-11-15T10:12:23;6.93;;;2.60;;
11921;SDS011;6021;51.182;3.160;2022-11-15T10:14:57;5.87;;;3.00;;
11921;SDS011;6021;51.182;3.160;2022-11-15T10:17:51;6.93;;;2.87;;
11921;SDS011;6021;51.182;3.160;2022-11-15T10:20:20;6.37;;;2.60;;
11921;SDS011;6021;51.182;3.160;2022-11-15T10:23:00;4.93;;;2.67;;
11921;SDS011;6021;51.182;3.160;2022-11-15T10:25:31;8.60;;;2.93;;
11921;SDS011;6021;51.182;3.160;2022-11-15T10:30:51;8.43;;;2.80;;
11921;SDS011;6021;51.182;3.160;2022-11-15T10:33:37;5.97;;;2.30;;
11921;SDS011;6021;51.182;3.160;2022-11-15T10:41:30;7.63;;;2.50;;
11921;SDS011;6021;51.182;3.160;2022-11-15T10:46:39;4.77;;;1.93;;
11921;SDS011;6021;51.182;3.160;2022-11-15T10:49:13;4.30;;;2.17;;
11921;SDS011;6021;51.182;3.160;2022-11-15T10:51:49;5.30;;;2.17;;
11921;SDS011;6021;51.182;3.160;2022-11-15T10:54:23;5.63;;;1.80;;
11921;SDS011;6021;51.182;3.160;2022-11-15T10:56:56;7.83;;;2.00;;
11921;SDS011;6021;51.182;3.160;2022-11-15T10:59:26;8.50;;;2.00;;
11921;SDS011;6021;51.182;3.160;2022-11-15T11:01:57;6.40;;;1.97;;
11921;SDS011;6021;51.182;3.160;2022-11-15T11:04:28;8.07;;;2.20;;
11921;SDS011;6021;51.182;3.160;2022-11-15T11:06:59;6.27;;;1.80;;
11921;SDS011;6021;51.182;3.160;2022-11-15T11:09:31;4.43;;;1.80;;
11921;SDS011;6021;51.182;3.160;2022-11-15T11:12:05;5.97;;;1.90;;
11921;SDS011;6021;51.182;3.160;2022-11-15T11:14:36;5.10;;;1.90;;
11921;SDS011;6021;51.182;3.160;2022-11-15T11:17:09;6.67;;;1.80;;
11921;SDS011;6021;51.182;3.160;2022-11-15T11:22:42;5.23;;;1.70;;
11921;SDS011;6021;51.182;3.160;2022-11-15T11:33:41;5.47;;;1.80;;
11921;SDS011;6021;51.182;3.160;2022-11-15T11:42:04;4.83;;;1.77;;
11921;SDS011;6021;51.182;3.160;2022-11-15T11:47:24;5.80;;;1.70;;
11921;SDS011;6021;51.182;3.160;2022-11-15T11:50:10;4.83;;;1.60;;
11921;SDS011;6021;51.182;3.160;2022-11-15T11:52:56;2.87;;;1.57;;
11921;SDS011;6021;51.182;3.160;2022-11-15T11:55:32;6.23;;;1.90;;
11921;SDS011;6021;51.182;3.160;2022-11-15T11:58:15;6.70;;;1.70;;
11921;SDS011;6021;51.182;3.160;2022-11-15T12:00:55;5.23;;;1.90;;
11921;SDS011;6021;51.182;3.160;2022-11-15T12:03:30;6.53;;;1.87;;
11921;SDS011;6021;51.182;3.160;2022-11-15T12:06:01;8.97;;;2.03;;
11921;SDS011;6021;51.182;3.160;2022-11-15T12:08:33;4.93;;;1.80;;
11921;SDS011;6021;51.182;3.160;2022-11-15T12:11:19;3.93;;;1.53;;
11921;SDS011;6021;51.182;3.160;2022-11-15T12:13:53;3.63;;;1.60;;
11921;SDS011;6021;51.182;3.160;2022-11-15T12:16:26;5.20;;;1.90;;
11921;SDS011;6021;51.182;3.160;2022-11-15T12:18:58;6.03;;;1.90;;
11921;SDS011;6021;51.182;3.160;2022-11-15T12:24:20;3.80;;;1.67;;
11921;SDS011;6021;51.182;3.160;2022-11-15T12:29:47;5.57;;;1.67;;
11921;SDS011;6021;51.182;3.160;2022-11-15T12:32:26;5.10;;;2.00;;
11921;SDS011;6021;51.182;3.160;2022-11-15T12:34:59;3.83;;;1.53;;
11921;SDS011;6021;51.182;3.160;2022-11-15T12:42:59;4.80;;;1.83;;
11921;SDS011;6021;51.182;3.160;2022-11-15T12:45:34;4.70;;;1.53;;
11921;SDS011;6021;51.182;3.160;2022-11-15T12:58:57;2.13;;;1.67;;
11921;SDS011;6021;51.182;3.160;2022-11-15T13:04:08;4.30;;;1.60;;
11921;SDS011;6021;51.182;3.160;2022-11-15T13:07:02;4.57;;;1.90;;
11921;SDS011;6021;51.182;3.160;2022-11-15T13:12:08;3.40;;;1.80;;
11921;SDS011;6021;51.182;3.160;2022-11-15T13:17:20;2.77;;;2.00;;
11921;SDS011;6021;51.182;3.160;2022-11-15T13:19:48;3.87;;;2.07;;
11921;SDS011;6021;51.182;3.160;2022-11-15T13:22:25;2.90;;;1.80;;
11921;SDS011;6021;51.182;3.160;2022-11-15T13:25:15;2.13;;;1.83;;
11921;SDS011;6021;51.182;3.160;2022-11-15T13:27:48;4.80;;;2.20;;
11921;SDS011;6021;51.182;3.160;2022-11-15T13:30:25;4.20;;;2.10;;
11921;SDS011;6021;51.182;3.160;2022-11-15T13:32:54;3.23;;;1.70;;
11921;SDS011;6021;51.182;3.160;2022-11-15T13:35:24;4.70;;;2.00;;
11921;SDS011;6021;51.182;3.160;2022-11-15T13:37:54;2.47;;;1.93;;
11921;SDS011;6021;51.182;3.160;2022-11-15T13:40:28;3.90;;;1.83;;
11921;SDS011;6021;51.182;3.160;2022-11-15T13:42:58;4.43;;;2.07;;
11921;SDS011;6021;51.182;3.160;2022-11-15T13:45:26;5.00;;;2.20;;
11921;SDS011;6021;51.182;3.160;2022-11-15T13:47:55;2.80;;;1.90;;
11921;SDS011;6021;51.182;3.160;2022-11-15T13:50:26;2.10;;;1.90;;
11921;SDS011;6021;51.182;3.160;2022-11-15T13:52:57;3.43;;;2.20;;
11921;SDS011;6021;51.182;3.160;2022-11-15T13:55:28;6.17;;;2.03;;
11921;SDS011;6021;51.182;3.160;2022-11-15T13:58:00;2.40;;;1.90;;
11921;SDS011;6021;51.182;3.160;2022-11-15T14:00:39;3.63;;;2.20;;
11921;SDS011;6021;51.182;3.160;2022-11-15T14:06:05;5.13;;;2.57;;
11921;SDS011;6021;51.182;3.160;2022-11-15T14:08:42;4.10;;;2.60;;
11921;SDS011;6021;51.182;3.160;2022-11-15T14:16:45;3.37;;;2.83;;
11921;SDS011;6021;51.182;3.160;2022-11-15T14:30:43;4.27;;;3.13;;
11921;SDS011;6021;51.182;3.160;2022-11-15T14:33:22;5.87;;;3.10;;
11921;SDS011;6021;51.182;3.160;2022-11-15T14:35:52;5.00;;;3.10;;
11921;SDS011;6021;51.182;3.160;2022-11-15T14:38:22;5.30;;;3.30;;
11921;SDS011;6021;51.182;3.160;2022-11-15T14:40:51;4.63;;;3.40;;
11921;SDS011;6021;51.182;3.160;2022-11-15T14:43:20;6.10;;;3.43;;
11921;SDS011;6021;51.182;3.160;2022-11-15T14:45:49;3.87;;;3.37;;
11921;SDS011;6021;51.182;3.160;2022-11-15T14:48:17;5.60;;;3.73;;
11921;SDS011;6021;51.182;3.160;2022-11-15T14:50:45;5.97;;;3.70;;
11921;SDS011;6021;51.182;3.160;2022-11-15T14:53:15;6.07;;;3.97;;
11921;SDS011;6021;51.182;3.160;2022-11-15T14:55:44;4.40;;;3.47;;
11921;SDS011;6021;51.182;3.160;2022-11-15T14:58:12;4.97;;;3.80;;
11921;SDS011;6021;51.182;3.160;2022-11-15T15:00:41;4.13;;;3.60;;
11921;SDS011;6021;51.182;3.160;2022-11-15T15:03:09;5.20;;;3.63;;
11921;SDS011;6021;51.182;3.160;2022-11-15T15:05:39;4.33;;;3.90;;
11921;SDS011;6021;51.182;3.160;2022-11-15T15:08:09;4.17;;;3.70;;
11921;SDS011;6021;51.182;3.160;2022-11-15T15:10:39;5.47;;;3.50;;
11921;SDS011;6021;51.182;3.160;2022-11-15T15:13:16;4.87;;;3.83;;
11921;SDS011;6021;51.182;3.160;2022-11-15T15:15:47;5.40;;;4.00;;
11921;SDS011;6021;51.182;3.160;2022-11-15T15:18:16;4.40;;;3.83;;
11921;SDS011;6021;51.182;3.160;2022-11-15T15:20:46;6.20;;;4.03;;
11921;SDS011;6021;51.182;3.160;2022-11-15T15:23:18;5.70;;;4.40;;
11921;SDS011;6021;51.182;3.160;2022-11-15T15:25:47;6.37;;;4.47;;
11921;SDS011;6021;51.182;3.160;2022-11-15T15:28:15;4.43;;;4.03;;
11921;SDS011;6021;51.182;3.160;2022-11-15T15:30:44;6.43;;;5.00;;
11921;SDS011;6021;51.182;3.160;2022-11-15T15:33:12;6.00;;;5.00;;
11921;SDS011;6021;51.182;3.160;2022-11-15T15:35:40;6.57;;;4.73;;
11921;SDS011;6021;51.182;3.160;2022-11-15T15:38:12;5.60;;;5.10;;
11921;SDS011;6021;51.182;3.160;2022-11-15T15:40:41;6.20;;;5.23;;
11921;SDS011;6021;51.182;3.160;2022-11-15T15:43:10;6.23;;;5.40;;
11921;SDS011;6021;51.182;3.160;2022-11-15T15:45:40;6.13;;;5.53;;
11921;SDS011;6021;51.182;3.160;2022-11-15T15:48:10;5.97;;;5.37;;
11921;SDS011;6021;51.182;3.160;2022-11-15T15:50:41;6.00;;;5.37;;
11921;SDS011;6021;51.182;3.160;2022-11-15T15:53:13;6.20;;;5.60;;
11921;SDS011;6021;51.182;3.160;2022-11-15T15:55:42;9.20;;;6.00;;
11921;SDS011;6021;51.182;3.160;2022-11-15T15:58:10;7.40;;;6.10;;
11921;SDS011;6021;51.182;3.160;2022-11-15T16:00:38;6.83;;;6.13;;
11921;SDS011;6021;51.182;3.160;2022-11-15T16:03:07;7.83;;;6.60;;
11921;SDS011;6021;51.182;3.160;2022-11-15T16:05:35;7.97;;;7.17;;
11921;SDS011;6021;51.182;3.160;2022-11-15T16:08:04;8.70;;;7.67;;
11921;SDS011;6021;51.182;3.160;2022-11-15T16:10:32;10.67;;;7.70;;
11921;SDS011;6021;51.182;3.160;2022-11-15T16:13:01;8.10;;;7.30;;
11921;SDS011;6021;51.182;3.160;2022-11-15T16:15:29;10.07;;;8.30;;
11921;SDS011;6021;51.182;3.160;2022-11-15T16:17:59;7.73;;;7.10;;
11921;SDS011;6021;51.182;3.160;2022-11-15T16:20:36;9.50;;;6.53;;
11921;SDS011;6021;51.182;3.160;2022-11-15T16:23:07;7.50;;;6.80;;
11921;SDS011;6021;51.182;3.160;2022-11-15T16:25:41;6.97;;;6.27;;
11921;SDS011;6021;51.182;3.160;2022-11-15T16:28:17;7.40;;;6.67;;
11921;SDS011;6021;51.182;3.160;2022-11-15T16:30:48;7.50;;;6.80;;
11921;SDS011;6021;51.182;3.160;2022-11-15T16:33:18;6.73;;;6.13;;
11921;SDS011;6021;51.182;3.160;2022-11-15T16:35:46;8.30;;;5.60;;
11921;SDS011;6021;51.182;3.160;2022-11-15T16:38:15;5.97;;;5.30;;
11921;SDS011;6021;51.182;3.160;2022-11-15T16:40:44;5.80;;;5.20;;
11921;SDS011;6021;51.182;3.160;2022-11-15T16:43:13;6.20;;;5.33;;
11921;SDS011;6021;51.182;3.160;2022-11-15T16:45:41;8.10;;;5.60;;
11921;SDS011;6021;51.182;3.160;2022-11-15T16:48:19;6.40;;;5.03;;
11921;SDS011;6021;51.182;3.160;2022-11-15T16:50:43;6.00;;;5.40;;
11921;SDS011;6021;51.182;3.160;2022-11-15T16:53:11;6.27;;;5.60;;
11921;SDS011;6021;51.182;3.160;2022-11-15T16:55:40;7.13;;;5.30;;
11921;SDS011;6021;51.182;3.160;2022-11-15T16:58:08;6.67;;;5.97;;
11921;SDS011;6021;51.182;3.160;2022-11-15T17:03:14;6.83;;;6.20;;
11921;SDS011;6021;51.182;3.160;2022-11-15T17:05:42;7.80;;;7.10;;
11921;SDS011;6021;51.182;3.160;2022-11-15T17:08:11;7.90;;;7.20;;
11921;SDS011;6021;51.182;3.160;2022-11-15T17:13:10;6.47;;;5.70;;
11921;SDS011;6021;51.182;3.160;2022-11-15T17:15:43;5.73;;;5.23;;
11921;SDS011;6021;51.182;3.160;2022-11-15T17:18:11;6.43;;;5.80;;
11921;SDS011;6021;51.182;3.160;2022-11-15T17:20:41;6.33;;;5.73;;
11921;SDS011;6021;51.182;3.160;2022-11-15T17:25:41;8.10;;;5.73;;
11921;SDS011;6021;51.182;3.160;2022-11-15T17:28:09;5.70;;;5.20;;
11921;SDS011;6021;51.182;3.160;2022-11-15T17:30:43;6.20;;;5.60;;
11921;SDS011;6021;51.182;3.160;2022-11-15T17:33:08;6.33;;;5.60;;